Time;durP1;ratioP1;P1;durP2;ratioP2;P2;SDS_P1;SDS_P2;PMS_P1;PMS_P2;Temp;Humidity;BMP_temperature;BMP_pressure;BME280_temperature;BME280_humidity;BME280_pressure;Samples;Min_cycle;Max_cycle;Signal;HPM_P1;HPM_P2
2021/03/26 00:01:35;;;;;;;35.63;17.70;;;11.10;88.20;;;;;;5098457;28;20045;-88
2021/03/26 00:04:03;;;;;;;32.55;16.13;;;11.00;89.10;;;;;;5097882;28;20223;-89
2021/03/26 00:06:31;;;;;;;30.13;16.00;;;11.00;89.50;;;;;;5098284;28;20043;-89
2021/03/26 00:08:58;;;;;;;34.05;16.15;;;10.90;90.10;;;;;;5098288;28;20047;-88
2021/03/26 00:11:28;;;;;;;34.45;16.42;;;10.70;90.20;;;;;;5099041;28;20044;-88
2021/03/26 00:13:53;;;;;;;33.83;16.50;;;10.70;90.40;;;;;;5098189;28;20047;-89
2021/03/26 00:16:20;;;;;;;31.27;16.27;;;10.70;90.40;;;;;;5098226;28;20036;-88
2021/03/26 00:18:47;;;;;;;37.90;17.73;;;10.60;90.30;;;;;;5098078;28;20042;-89
2021/03/26 00:21:13;;;;;;;32.05;16.13;;;10.50;91.10;;;;;;5097845;28;20103;-89
2021/03/26 00:23:38;;;;;;;31.27;16.48;;;10.40;91.30;;;;;;5098509;28;20048;-88
2021/03/26 00:26:04;;;;;;;35.72;15.90;;;10.40;91.10;;;;;;5098722;28;20067;-89
2021/03/26 00:28:30;;;;;;;34.10;17.00;;;10.40;91.00;;;;;;5098831;28;20044;-88
2021/03/26 00:30:55;;;;;;;31.35;15.38;;;10.30;91.00;;;;;;5097973;28;20416;-88
2021/03/26 00:33:21;;;;;;;37.22;17.17;;;10.30;91.00;;;;;;5099818;28;20070;-88
2021/03/26 00:35:47;;;;;;;35.72;17.17;;;10.30;91.40;;;;;;5098187;28;20044;-88
2021/03/26 00:38:13;;;;;;;42.33;20.00;;;10.30;91.50;;;;;;5098164;28;20035;-88
2021/03/26 00:40:39;;;;;;;41.40;20.40;;;10.20;91.70;;;;;;5097940;28;20047;-89
2021/03/26 00:43:04;;;;;;;43.08;20.60;;;10.20;92.00;;;;;;5099018;28;20028;-89
2021/03/26 00:45:34;;;;;;;41.80;19.10;;;10.20;91.90;;;;;;5106863;28;20397;-90
2021/03/26 00:48:00;;;;;;;41.95;21.55;;;10.20;91.90;;;;;;5098787;28;20192;-89
2021/03/26 00:50:36;;;;;;;47.58;21.92;;;10.20;91.90;;;;;;5098255;28;20350;-87
2021/03/26 00:53:06;;;;;;;47.88;21.30;;;10.20;91.90;;;;;;5082409;28;20047;-87
2021/03/26 00:55:31;;;;;;;45.53;21.95;;;10.30;91.90;;;;;;5098156;28;20197;-88
2021/03/26 00:57:57;;;;;;;46.85;21.23;;;10.20;91.80;;;;;;5096653;28;20119;-88
2021/03/26 01:00:24;;;;;;;39.53;20.65;;;10.20;91.70;;;;;;5098372;28;20036;-90
2021/03/26 01:02:51;;;;;;;41.17;19.80;;;10.20;91.60;;;;;;5093063;28;20124;-89
2021/03/26 01:05:22;;;;;;;37.38;19.55;;;10.20;91.50;;;;;;5097651;28;20031;-89
2021/03/26 01:07:48;;;;;;;39.13;21.65;;;10.20;91.40;;;;;;5097586;28;20409;-89
2021/03/26 01:10:17;;;;;;;40.55;21.20;;;10.20;91.40;;;;;;5096745;28;20090;-86
2021/03/26 01:12:43;;;;;;;41.53;19.95;;;10.20;91.40;;;;;;5097192;28;20082;-89
2021/03/26 01:15:12;;;;;;;37.55;19.85;;;10.10;91.40;;;;;;5096152;28;20405;-88
2021/03/26 01:17:39;;;;;;;46.63;19.65;;;10.10;91.30;;;;;;5096859;28;20105;-89
2021/03/26 01:20:16;;;;;;;47.28;22.20;;;10.00;91.20;;;;;;5097600;28;20031;-89
2021/03/26 01:22:42;;;;;;;40.60;20.35;;;10.00;91.40;;;;;;5097739;28;20094;-89
2021/03/26 01:25:17;;;;;;;46.72;20.58;;;9.90;91.60;;;;;;5099571;28;20040;-87
2021/03/26 01:27:42;;;;;;;38.92;19.20;;;9.90;91.90;;;;;;5097697;28;20679;-89
2021/03/26 01:30:11;;;;;;;45.28;20.92;;;9.80;91.90;;;;;;5097190;28;20131;-88
2021/03/26 01:32:37;;;;;;;36.92;18.92;;;9.80;91.90;;;;;;5096633;28;20044;-90
2021/03/26 01:35:05;;;;;;;40.17;20.13;;;9.90;91.90;;;;;;5096930;28;20044;-88
2021/03/26 01:37:31;;;;;;;37.40;19.48;;;9.90;91.80;;;;;;5097096;28;20040;-89
2021/03/26 01:39:57;;;;;;;41.50;20.17;;;9.90;91.70;;;;;;5097791;28;20028;-89
2021/03/26 01:42:30;;;;;;;39.30;19.88;;;9.90;91.60;;;;;;5097349;28;20040;-90
2021/03/26 01:44:56;;;;;;;49.38;20.50;;;9.90;91.60;;;;;;5097538;28;20032;-89
2021/03/26 01:47:21;;;;;;;45.08;20.92;;;9.90;91.50;;;;;;5096853;28;20052;-88
2021/03/26 01:49:47;;;;;;;40.00;19.10;;;10.00;91.40;;;;;;5095688;28;20173;-88
2021/03/26 01:52:12;;;;;;;45.63;21.48;;;10.00;91.30;;;;;;5097138;28;20368;-87
2021/03/26 01:54:38;;;;;;;41.28;20.08;;;9.90;91.20;;;;;;5096926;28;20039;-88
2021/03/26 01:57:04;;;;;;;41.03;20.30;;;10.00;91.10;;;;;;5097496;28;20252;-88
2021/03/26 01:59:30;;;;;;;43.42;21.02;;;9.90;90.90;;;;;;5103934;28;20075;-88
2021/03/26 02:02:08;;;;;;;42.83;19.70;;;9.90;90.90;;;;;;5100555;28;20436;-90
2021/03/26 02:04:38;;;;;;;38.47;20.15;;;9.90;90.80;;;;;;5096322;28;20028;-89
2021/03/26 02:07:04;;;;;;;37.88;19.63;;;9.90;90.70;;;;;;5097999;28;20126;-88
2021/03/26 02:09:36;;;;;;;39.83;19.65;;;9.90;90.60;;;;;;5099669;28;20182;-88
2021/03/26 02:12:09;;;;;;;47.00;21.50;;;9.90;90.50;;;;;;5097196;28;20048;-89
2021/03/26 02:14:45;;;;;;;40.80;20.33;;;9.90;90.50;;;;;;5103017;28;20368;-89
2021/03/26 02:17:15;;;;;;;38.33;19.45;;;9.90;90.40;;;;;;5100118;28;20044;-89
2021/03/26 02:19:45;;;;;;;35.90;18.38;;;9.90;90.40;;;;;;5096183;28;20101;-89
2021/03/26 02:22:13;;;;;;;38.55;18.73;;;9.90;90.30;;;;;;5096116;28;20028;-88
2021/03/26 02:24:41;;;;;;;36.70;18.52;;;9.90;90.20;;;;;;5096023;28;20032;-89
2021/03/26 02:27:12;;;;;;;41.92;19.15;;;9.90;90.10;;;;;;5096536;28;20036;-89
2021/03/26 02:29:38;;;;;;;37.05;16.55;;;9.90;90.10;;;;;;5096215;28;20050;-88
2021/03/26 02:32:28;;;;;;;42.30;19.73;;;9.90;90.00;;;;;;5096076;28;20388;-88
2021/03/26 02:35:21;;;;;;;37.05;19.13;;;9.80;89.80;;;;;;5099242;28;20053;-88
2021/03/26 02:37:55;;;;;;;46.17;19.27;;;9.80;89.60;;;;;;5096010;28;20043;-89
2021/03/26 02:40:49;;;;;;;38.88;18.10;;;9.80;89.60;;;;;;5097167;28;20417;-89
2021/03/26 02:43:33;;;;;;;36.75;17.02;;;9.80;89.90;;;;;;5096435;28;20086;-90
2021/03/26 02:46:15;;;;;;;38.90;19.25;;;9.70;89.80;;;;;;5096242;28;20040;-90
2021/03/26 02:49:06;;;;;;;38.37;18.70;;;9.70;89.60;;;;;;5095967;28;20350;-89
2021/03/26 02:51:50;;;;;;;38.67;19.52;;;9.70;89.70;;;;;;5095931;28;20075;-90
2021/03/26 02:54:31;;;;;;;43.40;20.35;;;9.60;89.80;;;;;;5095697;28;20054;-88
2021/03/26 02:57:02;;;;;;;37.88;18.88;;;9.70;90.00;;;;;;5095930;28;20036;-90
2021/03/26 02:59:46;;;;;;;36.47;17.67;;;9.60;89.80;;;;;;5096035;28;20036;-89
2021/03/26 03:02:14;;;;;;;39.17;18.35;;;9.60;89.60;;;;;;5098930;28;20393;-90
2021/03/26 03:04:50;;;;;;;40.53;18.23;;;9.50;89.70;;;;;;5101225;28;20032;-88
2021/03/26 03:07:22;;;;;;;37.67;18.08;;;9.50;89.90;;;;;;5093000;28;20365;-89
2021/03/26 03:09:55;;;;;;;39.30;17.27;;;9.40;89.80;;;;;;5099790;28;20283;-89
2021/03/26 03:12:31;;;;;;;45.83;18.20;;;9.40;89.90;;;;;;5099443;28;20305;-88
2021/03/26 03:15:07;;;;;;;49.88;18.80;;;9.30;90.00;;;;;;5099117;28;20086;-89
2021/03/26 03:17:55;;;;;;;48.20;18.98;;;9.30;90.10;;;;;;5098937;28;20047;-88
2021/03/26 03:20:42;;;;;;;37.72;18.80;;;9.20;90.20;;;;;;5097480;28;20063;-89
2021/03/26 03:23:35;;;;;;;47.60;19.55;;;9.10;90.40;;;;;;5099041;28;20143;-88
2021/03/26 03:26:14;;;;;;;38.38;18.45;;;9.10;90.70;;;;;;5099100;28;20710;-88
2021/03/26 03:29:11;;;;;;;36.80;18.75;;;9.00;90.70;;;;;;5103397;28;20530;-89
2021/03/26 03:31:52;;;;;;;38.67;17.83;;;9.00;90.80;;;;;;5097832;28;20474;-88
2021/03/26 03:34:33;;;;;;;39.90;17.58;;;8.90;90.80;;;;;;5108600;28;20035;-88
2021/03/26 03:37:13;;;;;;;36.80;16.00;;;8.80;90.70;;;;;;5108776;28;20032;-88
2021/03/26 03:39:58;;;;;;;41.47;17.48;;;8.80;90.60;;;;;;5099327;28;20031;-89
2021/03/26 03:42:49;;;;;;;36.47;17.05;;;8.70;90.50;;;;;;5098845;28;20340;-87
2021/03/26 03:45:27;;;;;;;37.92;17.90;;;8.70;90.60;;;;;;5098977;28;20039;-89
2021/03/26 03:48:04;;;;;;;43.17;18.75;;;8.60;90.60;;;;;;5098889;28;20305;-88
2021/03/26 03:50:42;;;;;;;41.70;18.52;;;8.50;90.80;;;;;;5099084;28;20052;-89
2021/03/26 03:53:17;;;;;;;36.65;17.52;;;8.50;91.00;;;;;;5098713;28;20036;-88
2021/03/26 03:55:53;;;;;;;39.85;18.60;;;8.40;91.00;;;;;;5099791;28;20073;-88
2021/03/26 03:58:29;;;;;;;42.85;19.60;;;8.40;91.00;;;;;;5097315;28;20135;-89
2021/03/26 04:01:05;;;;;;;39.78;19.27;;;8.30;91.00;;;;;;5096340;28;20036;-89
2021/03/26 04:03:53;;;;;;;54.50;19.52;;;8.30;91.30;;;;;;5099829;28;20126;-88
2021/03/26 04:06:20;;;;;;;43.47;20.17;;;8.20;91.50;;;;;;5097716;28;20293;-89
2021/03/26 04:09:14;;;;;;;44.25;19.10;;;8.20;91.60;;;;;;5098743;28;20036;-89
2021/03/26 04:11:46;;;;;;;40.97;17.90;;;8.10;91.70;;;;;;5108896;28;20040;-88
2021/03/26 04:14:41;;;;;;;29.15;14.48;;;8.00;91.80;;;;;;5097359;28;20040;-88
2021/03/26 04:17:35;;;;;;;37.78;18.75;;;8.00;91.90;;;;;;5098730;28;20036;-89
2021/03/26 04:20:07;;;;;;;43.47;18.70;;;8.00;91.90;;;;;;5107099;28;20289;-89
2021/03/26 04:22:41;;;;;;;40.07;14.27;;;7.90;92.00;;;;;;5085655;28;20119;-89
2021/03/26 04:25:15;;;;;;;46.28;19.80;;;7.90;92.10;;;;;;5098909;28;20664;-88
2021/03/26 04:27:44;;;;;;;48.53;20.08;;;7.90;92.20;;;;;;5099042;28;20046;-89
2021/03/26 04:30:21;;;;;;;46.20;21.20;;;7.80;92.60;;;;;;5098823;28;20040;-88
2021/03/26 04:32:49;;;;;;;53.55;21.60;;;7.80;92.70;;;;;;5098630;28;20067;-89
2021/03/26 04:35:16;;;;;;;47.10;19.80;;;7.80;92.70;;;;;;5098051;28;20063;-89
2021/03/26 04:37:59;;;;;;;50.35;20.55;;;7.90;92.90;;;;;;5099094;28;20409;-88
2021/03/26 04:40:38;;;;;;;48.92;22.10;;;7.80;93.20;;;;;;5097620;28;20349;-88
2021/03/26 04:43:27;;;;;;;46.33;21.55;;;7.90;93.10;;;;;;5097942;28;20032;-88
2021/03/26 04:46:20;;;;;;;46.90;21.80;;;7.90;93.00;;;;;;5098234;28;20682;-89
2021/03/26 04:49:16;;;;;;;47.30;20.08;;;7.90;92.90;;;;;;5096342;28;20075;-87
2021/03/26 04:52:09;;;;;;;53.65;21.33;;;7.90;92.90;;;;;;5097440;28;20454;-89
2021/03/26 04:54:46;;;;;;;54.60;22.83;;;8.00;92.70;;;;;;5097224;28;20297;-89
2021/03/26 04:57:18;;;;;;;44.80;21.70;;;8.00;92.70;;;;;;5082122;28;20127;-89
2021/03/26 05:00:02;;;;;;;;;;;8.00;92.50;;;;;;5098053;28;20043;-87
2021/03/26 05:02:31;;;;;;;44.65;19.25;;;8.00;92.40;;;;;;5096946;28;19938;-89
2021/03/26 05:04:58;;;;;;;44.47;18.83;;;8.00;92.50;;;;;;5097075;28;20083;-89
2021/03/26 05:07:33;;;;;;;49.05;21.75;;;7.90;92.60;;;;;;5109555;28;20038;-88
2021/03/26 05:10:03;;;;;;;50.83;21.75;;;8.00;92.60;;;;;;5097329;28;20043;-89
2021/03/26 05:12:42;;;;;;;42.20;19.90;;;8.00;92.50;;;;;;5095506;28;20144;-90
2021/03/26 05:15:14;;;;;;;52.65;21.70;;;8.00;92.50;;;;;;5088597;28;20051;-89
2021/03/26 05:17:50;;;;;;;42.40;19.25;;;8.10;92.50;;;;;;5096361;28;20040;-88
2021/03/26 05:20:33;;;;;;;43.78;20.55;;;8.10;92.40;;;;;;5097924;28;20032;-87
2021/03/26 05:23:12;;;;;;;38.90;21.50;;;8.20;92.20;;;;;;5106652;28;20055;-90
2021/03/26 05:25:46;;;;;;;36.55;18.33;;;8.20;92.20;;;;;;5096441;28;20089;-87
2021/03/26 05:28:16;;;;;;;43.28;19.33;;;8.20;92.20;;;;;;5099405;28;20647;-90
2021/03/26 05:30:44;;;;;;;44.83;19.70;;;8.30;92.10;;;;;;5110373;28;20528;-88
2021/03/26 05:33:29;;;;;;;39.45;19.17;;;8.30;92.00;;;;;;5095878;28;20116;-87
2021/03/26 05:36:08;;;;;;;45.45;19.75;;;8.40;92.00;;;;;;5094574;28;20032;-89
2021/03/26 05:38:52;;;;;;;44.97;19.25;;;8.50;92.10;;;;;;5097998;28;20110;-90
2021/03/26 05:41:38;;;;;;;45.40;18.90;;;8.50;91.70;;;;;;5096492;28;20063;-90
2021/03/26 05:44:28;;;;;;;47.90;19.83;;;8.60;91.40;;;;;;5096814;28;20490;-90
2021/03/26 05:47:08;;;;;;;34.88;17.00;;;8.60;91.30;;;;;;5076935;28;20059;-89
2021/03/26 05:49:56;;;;;;;35.80;16.40;;;8.60;91.10;;;;;;5096187;28;20414;-90
2021/03/26 05:52:47;;;;;;;37.35;17.90;;;8.60;91.00;;;;;;5094357;28;20490;-88
2021/03/26 05:55:37;;;;;;;37.38;16.85;;;8.60;91.00;;;;;;5097189;28;20032;-88
2021/03/26 05:58:44;;;;;;;36.58;17.15;;;8.60;91.00;;;;;;5109878;28;20054;-87
2021/03/26 06:01:37;;;;;;;37.85;18.02;;;8.60;90.80;;;;;;5073223;28;20028;-89
2021/03/26 06:04:33;;;;;;;36.40;17.48;;;8.60;90.80;;;;;;5097349;28;20036;-88
2021/03/26 06:07:14;;;;;;;37.75;18.20;;;8.60;90.80;;;;;;5080070;28;20306;-89
2021/03/26 06:10:07;;;;;;;34.70;17.25;;;8.60;90.80;;;;;;5095811;28;20051;-87
2021/03/26 06:13:06;;;;;;;38.35;16.15;;;8.70;90.80;;;;;;5097309;28;20059;-90
2021/03/26 06:15:46;;;;;;;33.28;15.63;;;8.70;90.60;;;;;;5096201;28;20042;-89
2021/03/26 06:18:31;;;;;;;31.27;15.93;;;8.80;90.50;;;;;;5095590;28;20036;-89
2021/03/26 06:21:12;;;;;;;35.78;14.75;;;8.80;90.70;;;;;;5096034;28;20031;-89
2021/03/26 06:24:22;;;;;;;31.98;16.20;;;8.90;90.70;;;;;;5097425;28;20120;-89
2021/03/26 06:27:18;;;;;;;24.58;13.32;;;8.90;90.10;;;;;;5083603;28;20308;-90
2021/03/26 06:30:10;;;;;;;29.83;15.00;;;9.00;90.10;;;;;;5098522;28;20039;-89
2021/03/26 06:33:20;;;;;;;32.97;15.45;;;9.10;90.20;;;;;;5090795;28;20074;-91
2021/03/26 06:36:14;;;;;;;30.75;14.70;;;9.20;89.80;;;;;;5094111;28;20560;-90
2021/03/26 06:38:56;;;;;;;30.05;14.82;;;9.20;90.00;;;;;;5080687;28;20133;-90
2021/03/26 06:41:38;;;;;;;26.35;12.77;;;9.30;89.30;;;;;;5080346;28;20051;-90
2021/03/26 06:44:41;;;;;;;31.52;13.82;;;9.40;90.10;;;;;;5081545;28;20041;-89
2021/03/26 06:47:30;;;;;;;32.83;15.23;;;9.60;88.90;;;;;;5081245;28;20032;-90
2021/03/26 06:50:15;;;;;;;33.80;14.55;;;9.60;88.80;;;;;;5084245;28;20032;-90
2021/03/26 06:53:07;;;;;;;29.70;14.95;;;9.70;89.10;;;;;;5080593;28;20098;-90
2021/03/26 06:56:13;;;;;;;25.90;13.73;;;9.80;88.40;;;;;;5078527;28;20036;-90
2021/03/26 06:58:59;;;;;;;25.80;14.02;;;9.90;88.40;;;;;;5080875;28;20138;-88
2021/03/26 07:02:02;;;;;;;25.95;13.55;;;10.00;87.80;;;;;;5080369;28;20041;-91
2021/03/26 07:04:47;;;;;;;22.85;14.02;;;10.10;87.00;;;;;;5079823;28;20041;-88
2021/03/26 07:07:30;;;;;;;25.63;13.15;;;10.10;87.00;;;;;;5089365;28;20035;-90
2021/03/26 07:10:11;;;;;;;;;;;10.20;86.70;;;;;;5100473;28;20032;-91
2021/03/26 07:13:00;;;;;;;27.73;13.95;;;10.30;85.90;;;;;;5100154;28;19912;-91
2021/03/26 07:15:36;;;;;;;26.42;13.90;;;10.30;85.20;;;;;;5100882;28;20352;-89
2021/03/26 07:18:46;;;;;;;27.45;13.90;;;10.30;85.70;;;;;;5100518;28;20428;-90
2021/03/26 07:21:34;;;;;;;28.02;13.93;;;10.30;85.00;;;;;;5079778;28;20359;-91
2021/03/26 07:24:17;;;;;;;28.42;14.05;;;10.30;85.40;;;;;;5090103;28;20040;-90
2021/03/26 07:26:51;;;;;;;25.90;14.10;;;10.40;85.70;;;;;;5100274;28;20507;-89
2021/03/26 07:29:44;;;;;;;35.78;15.15;;;10.50;85.30;;;;;;5099515;28;20044;-90
2021/03/26 07:32:18;;;;;;;28.65;14.82;;;10.50;85.20;;;;;;5112887;28;20400;-90
2021/03/26 07:35:03;;;;;;;28.70;15.40;;;10.50;84.80;;;;;;5115574;28;20039;-90
2021/03/26 07:37:50;;;;;;;31.15;14.23;;;10.50;84.80;;;;;;5118669;28;20051;-90
2021/03/26 07:40:37;;;;;;;28.02;15.15;;;10.60;84.30;;;;;;5120122;28;20118;-91
2021/03/26 07:43:39;;;;;;;27.35;14.30;;;10.60;85.10;;;;;;5100061;28;20123;-91
2021/03/26 07:46:28;;;;;;;26.20;14.23;;;10.60;85.10;;;;;;5100296;28;20036;-90
2021/03/26 07:49:14;;;;;;;30.75;16.17;;;10.70;85.70;;;;;;5099589;28;20036;-90
2021/03/26 07:51:53;;;;;;;26.45;14.27;;;10.80;85.30;;;;;;5100082;28;20031;-91
2021/03/26 07:54:45;;;;;;;27.05;15.38;;;10.90;83.20;;;;;;5099793;28;20059;-91
2021/03/26 07:57:30;;;;;;;40.77;15.57;;;11.00;84.10;;;;;;5080584;28;20072;-90
2021/03/26 08:00:24;;;;;;;25.80;14.65;;;11.00;83.10;;;;;;5079613;28;20037;-90
2021/03/26 08:03:05;;;;;;;25.45;15.27;;;11.10;83.80;;;;;;5080058;28;20040;-90
2021/03/26 08:05:43;;;;;;;30.10;15.02;;;11.20;83.10;;;;;;5079089;28;20048;-90
2021/03/26 08:08:34;;;;;;;28.10;15.48;;;11.20;82.60;;;;;;5109148;28;20302;-89
2021/03/26 08:11:19;;;;;;;23.00;13.98;;;11.20;82.60;;;;;;5087814;28;20051;-91
2021/03/26 08:14:15;;;;;;;28.98;15.35;;;11.40;82.30;;;;;;5099876;28;20036;-89
2021/03/26 08:17:26;;;;;;;28.60;16.02;;;11.40;83.60;;;;;;5098779;28;20044;-91
2021/03/26 08:20:16;;;;;;;25.08;15.13;;;11.50;82.00;;;;;;5040865;28;20041;-90
2021/03/26 08:23:08;;;;;;;33.25;17.23;;;11.50;82.50;;;;;;5098743;28;20314;-89
2021/03/26 08:25:38;;;;;;;21.05;11.23;;;11.60;82.10;;;;;;5109230;28;20380;-91
2021/03/26 08:28:19;;;;;;;31.92;16.92;;;11.60;82.40;;;;;;5098799;28;20036;-91
2021/03/26 08:31:13;;;;;;;30.55;16.33;;;11.70;82.80;;;;;;5098777;28;20044;-92
2021/03/26 08:34:07;;;;;;;28.60;14.68;;;11.80;83.40;;;;;;5098930;28;20047;-90
2021/03/26 08:36:54;;;;;;;34.28;15.93;;;11.90;84.10;;;;;;5099934;28;20040;-89
2021/03/26 08:39:52;;;;;;;35.95;16.67;;;12.10;82.10;;;;;;5099219;28;20382;-89
2021/03/26 08:42:29;;;;;;;31.02;17.17;;;12.20;83.50;;;;;;5099228;28;20039;-91
2021/03/26 08:44:59;;;;;;;31.10;15.65;;;12.30;83.30;;;;;;5099761;28;20039;-90
2021/03/26 08:47:34;;;;;;;31.98;16.13;;;12.40;82.30;;;;;;5098408;28;20036;-90
2021/03/26 08:50:23;;;;;;;28.73;17.30;;;12.60;81.60;;;;;;5098539;28;20036;-90
2021/03/26 08:53:03;;;;;;;33.35;16.67;;;12.70;81.30;;;;;;5099141;28;20381;-90
2021/03/26 08:55:51;;;;;;;34.15;18.05;;;12.80;81.30;;;;;;5106012;28;20065;-90
2021/03/26 08:58:43;;;;;;;35.50;17.88;;;12.90;81.40;;;;;;5112261;28;20177;-90
2021/03/26 09:01:15;;;;;;;34.08;17.88;;;13.00;80.30;;;;;;5077830;28;20033;-89
2021/03/26 09:04:18;;;;;;;34.38;19.13;;;13.20;80.30;;;;;;5095064;28;20146;-91
2021/03/26 09:07:02;;;;;;;34.80;19.88;;;13.30;80.20;;;;;;5099094;28;20044;-90
2021/03/26 09:09:42;;;;;;;33.65;18.63;;;13.50;78.60;;;;;;5097940;28;20116;-90
2021/03/26 09:12:29;;;;;;;34.70;19.52;;;13.70;79.90;;;;;;5098450;28;20470;-90
2021/03/26 09:15:06;;;;;;;38.17;19.05;;;13.80;77.70;;;;;;5098461;28;20040;-91
2021/03/26 09:17:57;;;;;;;36.78;19.48;;;13.90;77.10;;;;;;5098894;28;20229;-91
2021/03/26 09:20:32;;;;;;;37.28;20.70;;;14.10;75.70;;;;;;5097704;28;20302;-89
2021/03/26 09:23:25;;;;;;;38.35;19.27;;;14.20;76.50;;;;;;5098836;28;20151;-91
2021/03/26 09:25:57;;;;;;;34.72;19.80;;;14.30;75.40;;;;;;5098777;28;20414;-91
2021/03/26 09:28:28;;;;;;;43.22;20.50;;;14.50;76.50;;;;;;5098260;28;20059;-91
2021/03/26 09:30:58;;;;;;;34.67;19.33;;;14.50;74.00;;;;;;5097902;28;20189;-91
2021/03/26 09:33:27;;;;;;;38.72;20.92;;;14.60;77.60;;;;;;5098147;28;20066;-90
2021/03/26 09:35:58;;;;;;;37.78;21.38;;;14.80;74.40;;;;;;5098383;28;20039;-90
2021/03/26 09:38:34;;;;;;;38.93;20.87;;;14.90;73.60;;;;;;5098155;28;20081;-91
2021/03/26 09:41:42;;;;;;;44.03;20.45;;;15.10;72.90;;;;;;5097949;28;20142;-90
2021/03/26 09:44:35;;;;;;;38.25;22.33;;;15.00;71.90;;;;;;5098380;28;20066;-90
2021/03/26 09:47:26;;;;;;;38.03;21.08;;;15.10;72.30;;;;;;5090934;28;20036;-90
2021/03/26 09:50:01;;;;;;;46.80;22.45;;;15.10;71.40;;;;;;5098512;28;20043;-91
2021/03/26 09:52:38;;;;;;;43.83;22.63;;;15.20;71.60;;;;;;5098440;28;20067;-90
2021/03/26 09:55:19;;;;;;;43.10;24.27;;;15.30;72.50;;;;;;5101653;28;20032;-90
2021/03/26 09:58:12;;;;;;;45.50;22.17;;;15.40;71.10;;;;;;5088202;28;20051;-90
2021/03/26 10:00:56;;;;;;;44.80;23.13;;;15.40;70.80;;;;;;5097908;28;20093;-91
2021/03/26 10:03:37;;;;;;;41.38;22.55;;;15.40;70.90;;;;;;5097537;28;20332;-91
2021/03/26 10:06:23;;;;;;;40.47;22.85;;;15.40;71.10;;;;;;5097674;28;20093;-91
2021/03/26 10:11:52;;;;;;;45.50;23.83;;;15.50;70.00;;;;;;5097132;28;20088;-90
2021/03/26 10:14:31;;;;;;;41.67;23.52;;;15.50;69.90;;;;;;5097932;28;20043;-92
2021/03/26 10:17:10;;;;;;;48.83;25.40;;;15.60;70.30;;;;;;5098102;28;20051;-91
2021/03/26 10:19:44;;;;;;;45.92;24.30;;;15.60;70.10;;;;;;5097516;28;20101;-91
2021/03/26 10:22:37;;;;;;;49.88;25.17;;;15.70;70.70;;;;;;5097607;28;20028;-91
2021/03/26 10:25:19;;;;;;;47.95;24.48;;;15.70;70.90;;;;;;5097931;28;20036;-91
2021/03/26 10:28:14;;;;;;;44.38;24.58;;;15.80;70.20;;;;;;5099120;28;20040;-90
2021/03/26 10:31:01;;;;;;;44.25;24.40;;;15.90;70.30;;;;;;5077544;28;20044;-89
2021/03/26 10:33:32;;;;;;;49.17;26.33;;;16.00;70.40;;;;;;5077479;28;20394;-91
2021/03/26 10:36:03;;;;;;;56.20;26.02;;;16.00;69.80;;;;;;5077574;28;20094;-91
2021/03/26 10:38:40;;;;;;;52.63;28.52;;;16.10;69.20;;;;;;5078112;28;20041;-91
2021/03/26 10:41:30;;;;;;;49.25;27.70;;;16.20;69.50;;;;;;5079829;28;20520;-91
2021/03/26 10:44:34;;;;;;;48.53;26.25;;;16.30;71.30;;;;;;5078044;28;20040;-90
2021/03/26 10:47:27;;;;;;;44.58;26.55;;;16.40;70.10;;;;;;5090440;28;20039;-90
2021/03/26 10:49:58;;;;;;;42.70;24.48;;;16.40;70.40;;;;;;5096629;28;20062;-91
2021/03/26 10:52:40;;;;;;;45.15;25.20;;;16.30;70.10;;;;;;5097403;28;20131;-90
2021/03/26 10:55:19;;;;;;;47.22;26.50;;;16.30;70.70;;;;;;5096519;28;20082;-91
2021/03/26 10:58:20;;;;;;;45.70;26.00;;;16.50;70.60;;;;;;5076581;28;20044;-91
2021/03/26 11:01:07;;;;;;;48.00;28.02;;;16.70;70.00;;;;;;5076486;28;20109;-91
2021/03/26 11:03:46;;;;;;;47.55;27.73;;;16.80;68.50;;;;;;5081978;28;20027;-92
2021/03/26 11:06:31;;;;;;;45.78;27.88;;;16.90;68.60;;;;;;5097504;28;20039;-91
2021/03/26 11:09:31;;;;;;;49.58;26.55;;;17.00;68.90;;;;;;5096766;28;20028;-90
2021/03/26 11:12:26;;;;;;;48.70;28.75;;;17.10;70.10;;;;;;5097056;28;20032;-90
2021/03/26 11:15:10;;;;;;;54.55;29.60;;;17.30;67.20;;;;;;5097218;28;20040;-91
2021/03/26 11:17:46;;;;;;;49.10;26.45;;;17.40;67.80;;;;;;5097292;28;20400;-91
2021/03/26 11:20:34;;;;;;;51.78;29.10;;;17.50;68.80;;;;;;5096256;28;20520;-91
2021/03/26 11:23:05;;;;;;;48.38;29.67;;;17.60;65.90;;;;;;5080667;28;20043;-88
2021/03/26 11:25:37;;;;;;;50.38;28.27;;;17.60;66.60;;;;;;5100327;28;20043;-92
2021/03/26 11:28:14;;;;;;;46.53;26.25;;;17.60;67.00;;;;;;5084156;28;20056;-93
2021/03/26 11:30:46;;;;;;;53.95;30.70;;;17.50;66.10;;;;;;5101361;28;20040;-94
2021/03/26 11:33:44;;;;;;;51.17;31.08;;;17.60;65.60;;;;;;5100743;28;20043;-89
2021/03/26 11:36:46;;;;;;;56.67;32.92;;;17.60;66.40;;;;;;5099698;28;20443;-90
2021/03/26 11:39:35;;;;;;;86.53;54.30;;;17.50;65.20;;;;;;5100335;28;20128;-91
2021/03/26 11:42:26;;;;;;;68.22;41.33;;;17.40;66.10;;;;;;5099241;28;20032;-91
2021/03/26 11:45:03;;;;;;;56.75;30.77;;;17.30;66.70;;;;;;5101792;28;20271;-92
2021/03/26 11:47:41;;;;;;;61.10;30.40;;;17.30;65.80;;;;;;5101208;28;20036;-89
2021/03/26 11:50:39;;;;;;;58.08;32.28;;;17.30;67.40;;;;;;5101385;28;20070;-90
2021/03/26 11:53:27;;;;;;;50.80;28.38;;;17.30;65.30;;;;;;5099955;28;20101;-90
2021/03/26 11:56:04;;;;;;;49.80;28.23;;;17.20;64.70;;;;;;5099538;28;20043;-91
2021/03/26 11:58:39;;;;;;;50.00;28.25;;;17.20;66.70;;;;;;5100511;28;20050;-90
2021/03/26 12:01:09;;;;;;;52.38;28.88;;;17.30;65.70;;;;;;5099272;28;20028;-91
2021/03/26 12:04:00;;;;;;;43.78;27.08;;;17.20;67.20;;;;;;5100306;28;20377;-91
2021/03/26 12:06:36;;;;;;;46.65;28.90;;;17.30;66.90;;;;;;5099718;28;20141;-91
2021/03/26 12:09:27;;;;;;;46.30;28.48;;;17.30;66.50;;;;;;5099903;28;20127;-91
2021/03/26 12:11:55;;;;;;;44.92;27.02;;;17.40;66.30;;;;;;5110682;28;20419;-91
2021/03/26 12:14:24;;;;;;;54.20;30.90;;;17.60;65.00;;;;;;5119313;28;20040;-91
2021/03/26 12:16:52;;;;;;;52.08;30.85;;;17.60;63.60;;;;;;5119157;28;20088;-89
2021/03/26 12:19:25;;;;;;;47.00;27.15;;;17.60;64.10;;;;;;5121242;28;20121;-91
2021/03/26 12:22:00;;;;;;;48.45;28.05;;;17.50;64.70;;;;;;5119716;28;20118;-89
2021/03/26 12:24:46;;;;;;;51.20;28.73;;;17.50;64.80;;;;;;5106105;28;20145;-89
2021/03/26 12:27:27;;;;;;;45.67;27.55;;;17.40;64.70;;;;;;5097033;28;20043;-91
2021/03/26 12:30:09;;;;;;;48.53;27.92;;;17.40;65.20;;;;;;5092982;28;20060;-90
2021/03/26 12:32:41;;;;;;;47.05;26.98;;;17.40;64.70;;;;;;5084301;28;20105;-89
2021/03/26 12:35:22;;;;;;;48.08;27.02;;;17.40;65.30;;;;;;5081027;28;20102;-90
2021/03/26 12:38:07;;;;;;;58.53;30.92;;;17.50;64.50;;;;;;5078113;28;20036;-89
2021/03/26 12:40:41;;;;;;;53.55;31.40;;;17.70;62.30;;;;;;5078352;28;20040;-89
2021/03/26 12:43:25;;;;;;;49.88;29.45;;;17.70;62.50;;;;;;5078792;28;20036;-90
2021/03/26 12:46:10;;;;;;;56.95;31.85;;;17.70;63.80;;;;;;5097677;28;20306;-89
2021/03/26 12:48:51;;;;;;;50.35;31.45;;;17.80;62.40;;;;;;5098533;28;20452;-91
2021/03/26 12:51:33;;;;;;;47.35;27.83;;;18.00;61.90;;;;;;5078478;28;20129;-91
2021/03/26 12:54:17;;;;;;;44.85;27.80;;;18.10;61.50;;;;;;5087950;28;20043;-90
2021/03/26 12:56:56;;;;;;;54.08;30.55;;;18.10;62.80;;;;;;5098452;28;20130;-90
2021/03/26 12:59:47;;;;;;;48.38;28.73;;;18.20;61.00;;;;;;5097238;28;20050;-89
2021/03/26 13:02:29;;;;;;;48.15;30.10;;;18.20;60.30;;;;;;5097847;28;20035;-91
2021/03/26 13:05:09;;;;;;;49.13;28.27;;;18.20;61.40;;;;;;5097872;28;20317;-90
2021/03/26 13:07:56;;;;;;;46.67;26.33;;;18.30;60.20;;;;;;5097815;28;20036;-89
2021/03/26 13:10:31;;;;;;;48.38;27.83;;;18.50;58.90;;;;;;5098292;28;20700;-90
2021/03/26 13:13:08;;;;;;;44.25;26.05;;;18.60;58.60;;;;;;5098597;28;20113;-91
2021/03/26 13:15:36;;;;;;;46.67;28.23;;;18.70;59.70;;;;;;5077568;28;20122;-91
2021/03/26 13:18:11;;;;;;;45.25;25.15;;;18.80;59.40;;;;;;5077082;28;20044;-90
2021/03/26 13:20:53;;;;;;;44.60;24.65;;;18.90;60.10;;;;;;5093323;28;20047;-90
2021/03/26 13:23:22;;;;;;;33.90;21.25;;;18.90;57.90;;;;;;5097775;28;20446;-91
2021/03/26 13:25:54;;;;;;;37.83;22.02;;;19.00;56.90;;;;;;5083050;28;20209;-89
2021/03/26 13:28:38;;;;;;;39.70;23.43;;;19.10;57.10;;;;;;5096278;28;20305;-90
2021/03/26 13:31:33;;;;;;;35.40;20.23;;;19.20;55.90;;;;;;5097336;28;20072;-89
2021/03/26 13:34:13;;;;;;;32.50;20.27;;;19.20;54.70;;;;;;5092036;28;20052;-91
2021/03/26 13:37:01;;;;;;;37.97;21.15;;;19.30;54.90;;;;;;5097823;28;20047;-89
2021/03/26 13:39:37;;;;;;;45.47;22.98;;;19.30;55.50;;;;;;5096493;28;20059;-89